sensor_id;sensor_type;location;lat;lon;timestamp;pressure;altitude;pressure_sealevel;temperature;humidity
11971;BME280;6045;42.682;23.294;2023-08-17T00:00:52;94726.91;;;23.75;67.86
11971;BME280;6045;42.682;23.294;2023-08-17T00:03:19;94725.81;;;23.76;68.02
11971;BME280;6045;42.682;23.294;2023-08-17T00:05:46;94726.41;;;23.73;68.01
11971;BME280;6045;42.682;23.294;2023-08-17T00:08:13;94731.28;;;23.62;68.75
11971;BME280;6045;42.682;23.294;2023-08-17T00:10:41;94729.31;;;23.54;68.98
11971;BME280;6045;42.682;23.294;2023-08-17T00:13:08;94734.28;;;23.52;68.92
11971;BME280;6045;42.682;23.294;2023-08-17T00:15:35;94732.41;;;23.61;68.77
11971;BME280;6045;42.682;23.294;2023-08-17T00:18:02;94735.25;;;23.56;69.12
11971;BME280;6045;42.682;23.294;2023-08-17T00:20:28;94732.66;;;23.51;69.03
11971;BME280;6045;42.682;23.294;2023-08-17T00:22:55;94730.03;;;23.46;69.30
11971;BME280;6045;42.682;23.294;2023-08-17T00:25:22;94731.97;;;23.46;69.34
11971;BME280;6045;42.682;23.294;2023-08-17T00:27:50;94733.25;;;23.48;69.16
11971;BME280;6045;42.682;23.294;2023-08-17T00:30:17;94733.03;;;23.58;68.62
11971;BME280;6045;42.682;23.294;2023-08-17T00:32:43;94730.53;;;23.48;68.58
11971;BME280;6045;42.682;23.294;2023-08-17T00:35:10;94727.22;;;23.38;69.05
11971;BME280;6045;42.682;23.294;2023-08-17T00:37:37;94724.00;;;23.36;68.96
11971;BME280;6045;42.682;23.294;2023-08-17T00:40:05;94725.00;;;23.40;68.12
11971;BME280;6045;42.682;23.294;2023-08-17T00:42:32;94728.34;;;23.37;68.35
11971;BME280;6045;42.682;23.294;2023-08-17T00:45:00;94728.94;;;23.34;68.07
11971;BME280;6045;42.682;23.294;2023-08-17T00:47:28;94719.72;;;23.30;67.96
11971;BME280;6045;42.682;23.294;2023-08-17T00:49:56;94728.94;;;23.34;67.81
11971;BME280;6045;42.682;23.294;2023-08-17T00:52:23;94721.28;;;23.36;67.30
11971;BME280;6045;42.682;23.294;2023-08-17T00:54:50;94730.84;;;23.33;67.04
11971;BME280;6045;42.682;23.294;2023-08-17T00:57:18;94723.38;;;23.25;66.55
11971;BME280;6045;42.682;23.294;2023-08-17T00:59:46;94724.91;;;23.17;67.16
11971;BME280;6045;42.682;23.294;2023-08-17T01:02:14;94721.66;;;23.15;66.62
11971;BME280;6045;42.682;23.294;2023-08-17T01:04:42;94718.94;;;23.15;66.49
11971;BME280;6045;42.682;23.294;2023-08-17T01:07:08;94724.63;;;23.05;66.43
11971;BME280;6045;42.682;23.294;2023-08-17T01:09:35;94719.47;;;23.04;66.74
11971;BME280;6045;42.682;23.294;2023-08-17T01:12:08;94712.59;;;23.06;66.63
11971;BME280;6045;42.682;23.294;2023-08-17T01:14:50;94715.13;;;23.17;66.12
11971;BME280;6045;42.682;23.294;2023-08-17T01:17:23;94716.53;;;23.14;65.33
11971;BME280;6045;42.682;23.294;2023-08-17T01:19:52;94715.63;;;23.19;65.65
11971;BME280;6045;42.682;23.294;2023-08-17T01:22:21;94712.28;;;23.22;65.81
11971;BME280;6045;42.682;23.294;2023-08-17T01:24:54;94710.16;;;23.19;65.28
11971;BME280;6045;42.682;23.294;2023-08-17T01:27:22;94716.59;;;23.23;64.74
11971;BME280;6045;42.682;23.294;2023-08-17T01:29:50;94706.84;;;23.22;64.61
11971;BME280;6045;42.682;23.294;2023-08-17T01:32:23;94710.56;;;23.26;64.33
11971;BME280;6045;42.682;23.294;2023-08-17T01:34:56;94712.28;;;23.22;64.32
11971;BME280;6045;42.682;23.294;2023-08-17T01:37:26;94716.44;;;23.19;64.10
11971;BME280;6045;42.682;23.294;2023-08-17T01:39:56;94711.53;;;22.94;64.21
11971;BME280;6045;42.682;23.294;2023-08-17T01:42:24;94707.06;;;22.98;64.53
11971;BME280;6045;42.682;23.294;2023-08-17T01:44:52;94713.72;;;23.05;64.66
11971;BME280;6045;42.682;23.294;2023-08-17T01:47:20;94703.34;;;22.94;63.95
11971;BME280;6045;42.682;23.294;2023-08-17T01:49:47;94707.06;;;22.98;64.25
11971;BME280;6045;42.682;23.294;2023-08-17T01:52:14;94712.41;;;23.03;64.29
11971;BME280;6045;42.682;23.294;2023-08-17T01:54:41;94714.34;;;23.02;64.13
11971;BME280;6045;42.682;23.294;2023-08-17T01:57:09;94713.03;;;23.00;64.30
11971;BME280;6045;42.682;23.294;2023-08-17T01:59:36;94709.59;;;22.94;63.77
11971;BME280;6045;42.682;23.294;2023-08-17T02:02:03;94712.53;;;22.98;63.97
11971;BME280;6045;42.682;23.294;2023-08-17T02:04:29;94715.66;;;22.91;63.59
11971;BME280;6045;42.682;23.294;2023-08-17T02:06:56;94707.50;;;22.91;63.72
11971;BME280;6045;42.682;23.294;2023-08-17T02:09:23;94706.47;;;22.87;63.82
11971;BME280;6045;42.682;23.294;2023-08-17T02:11:50;94708.19;;;22.83;63.65
11971;BME280;6045;42.682;23.294;2023-08-17T02:14:18;94706.88;;;22.81;63.89
11971;BME280;6045;42.682;23.294;2023-08-17T02:16:44;94706.47;;;22.74;63.84
11971;BME280;6045;42.682;23.294;2023-08-17T02:19:11;94706.28;;;22.70;63.90
11971;BME280;6045;42.682;23.294;2023-08-17T02:21:38;94702.25;;;22.68;64.07
11971;BME280;6045;42.682;23.294;2023-08-17T02:24:05;94704.88;;;22.73;64.15
11971;BME280;6045;42.682;23.294;2023-08-17T02:26:32;94696.97;;;22.71;64.40
11971;BME280;6045;42.682;23.294;2023-08-17T02:28:59;94704.66;;;22.69;64.54
11971;BME280;6045;42.682;23.294;2023-08-17T02:31:27;94710.19;;;22.64;64.39
11971;BME280;6045;42.682;23.294;2023-08-17T02:33:54;94707.28;;;22.74;64.13
11971;BME280;6045;42.682;23.294;2023-08-17T02:36:25;94704.16;;;22.81;63.81
11971;BME280;6045;42.682;23.294;2023-08-17T02:38:52;94703.84;;;22.82;63.88
11971;BME280;6045;42.682;23.294;2023-08-17T02:41:19;94703.72;;;22.87;63.46
11971;BME280;6045;42.682;23.294;2023-08-17T02:43:46;94697.09;;;22.80;63.81
11971;BME280;6045;42.682;23.294;2023-08-17T02:46:13;94696.28;;;22.79;63.74
11971;BME280;6045;42.682;23.294;2023-08-17T02:48:42;94688.53;;;22.73;64.10
11971;BME280;6045;42.682;23.294;2023-08-17T02:51:09;94699.22;;;22.69;64.37
11971;BME280;6045;42.682;23.294;2023-08-17T02:53:36;94696.38;;;22.61;64.35
11971;BME280;6045;42.682;23.294;2023-08-17T02:56:03;94699.38;;;22.59;64.44
11971;BME280;6045;42.682;23.294;2023-08-17T02:58:29;94696.56;;;22.64;64.57
11971;BME280;6045;42.682;23.294;2023-08-17T03:00:56;94695.97;;;22.67;64.21
11971;BME280;6045;42.682;23.294;2023-08-17T03:03:23;94693.13;;;22.59;64.94
11971;BME280;6045;42.682;23.294;2023-08-17T03:05:51;94697.56;;;22.68;64.38
11971;BME280;6045;42.682;23.294;2023-08-17T03:08:18;94699.22;;;22.69;64.11
11971;BME280;6045;42.682;23.294;2023-08-17T03:10:45;94693.66;;;22.74;63.76
11971;BME280;6045;42.682;23.294;2023-08-17T03:13:12;94690.53;;;22.81;63.67
11971;BME280;6045;42.682;23.294;2023-08-17T03:15:38;94697.50;;;22.87;63.95
11971;BME280;6045;42.682;23.294;2023-08-17T03:18:05;94701.72;;;22.93;63.32
11971;BME280;6045;42.682;23.294;2023-08-17T03:20:32;94696.75;;;22.95;62.93
11971;BME280;6045;42.682;23.294;2023-08-17T03:23:00;94692.63;;;22.97;63.27
11971;BME280;6045;42.682;23.294;2023-08-17T03:25:27;94696.97;;;22.98;63.04
11971;BME280;6045;42.682;23.294;2023-08-17T03:27:54;94698.91;;;22.84;63.25
11971;BME280;6045;42.682;23.294;2023-08-17T03:30:21;94694.06;;;22.81;63.11
11971;BME280;6045;42.682;23.294;2023-08-17T03:32:48;94703.44;;;22.75;63.34
11971;BME280;6045;42.682;23.294;2023-08-17T03:35:14;94701.72;;;22.79;63.20
11971;BME280;6045;42.682;23.294;2023-08-17T03:37:41;94695.88;;;22.72;63.34
11971;BME280;6045;42.682;23.294;2023-08-17T03:40:10;94706.16;;;22.75;62.99
11971;BME280;6045;42.682;23.294;2023-08-17T03:42:36;94704.16;;;22.81;62.93
11971;BME280;6045;42.682;23.294;2023-08-17T03:45:04;94699.00;;;22.79;62.84
11971;BME280;6045;42.682;23.294;2023-08-17T03:47:31;94705.69;;;22.87;63.38
11971;BME280;6045;42.682;23.294;2023-08-17T03:49:58;94702.72;;;22.83;63.22
11971;BME280;6045;42.682;23.294;2023-08-17T03:52:26;94707.09;;;22.84;63.14
11971;BME280;6045;42.682;23.294;2023-08-17T03:54:53;94712.13;;;22.77;62.83
11971;BME280;6045;42.682;23.294;2023-08-17T03:57:21;94717.78;;;22.81;62.88
11971;BME280;6045;42.682;23.294;2023-08-17T03:59:48;94716.19;;;22.80;62.26
11971;BME280;6045;42.682;23.294;2023-08-17T04:02:15;94718.09;;;22.79;62.48
11971;BME280;6045;42.682;23.294;2023-08-17T04:04:41;94721.31;;;22.81;62.74
11971;BME280;6045;42.682;23.294;2023-08-17T04:07:08;94721.72;;;22.88;62.68
11971;BME280;6045;42.682;23.294;2023-08-17T04:09:35;94719.88;;;22.97;62.52
11971;BME280;6045;42.682;23.294;2023-08-17T04:12:02;94724.50;;;23.10;61.88
11971;BME280;6045;42.682;23.294;2023-08-17T04:14:31;94727.63;;;23.17;61.62
11971;BME280;6045;42.682;23.294;2023-08-17T04:16:58;94721.78;;;23.24;61.55
11971;BME280;6045;42.682;23.294;2023-08-17T04:19:25;94722.78;;;23.28;61.95
11971;BME280;6045;42.682;23.294;2023-08-17T04:21:52;94727.41;;;23.41;62.06
11971;BME280;6045;42.682;23.294;2023-08-17T04:24:18;94726.56;;;23.54;61.22
11971;BME280;6045;42.682;23.294;2023-08-17T04:26:45;94720.09;;;23.64;60.63
11971;BME280;6045;42.682;23.294;2023-08-17T04:29:13;94722.31;;;23.62;60.57
11971;BME280;6045;42.682;23.294;2023-08-17T04:31:41;94719.31;;;23.72;60.86
11971;BME280;6045;42.682;23.294;2023-08-17T04:34:08;94721.00;;;23.81;61.59
11971;BME280;6045;42.682;23.294;2023-08-17T04:36:34;94718.47;;;23.85;60.69
11971;BME280;6045;42.682;23.294;2023-08-17T04:39:01;94720.78;;;23.92;60.17
11971;BME280;6045;42.682;23.294;2023-08-17T04:41:29;94719.09;;;24.04;61.85
11971;BME280;6045;42.682;23.294;2023-08-17T04:43:56;94722.09;;;24.16;60.97
11971;BME280;6045;42.682;23.294;2023-08-17T04:46:23;94722.84;;;24.30;61.68
11971;BME280;6045;42.682;23.294;2023-08-17T04:48:51;94729.28;;;24.34;62.25
11971;BME280;6045;42.682;23.294;2023-08-17T04:51:18;94723.41;;;24.49;62.24
11971;BME280;6045;42.682;23.294;2023-08-17T04:53:48;94724.53;;;24.79;65.75
11971;BME280;6045;42.682;23.294;2023-08-17T04:56:14;94718.66;;;25.03;64.24
11971;BME280;6045;42.682;23.294;2023-08-17T04:58:41;94722.22;;;25.12;60.32
11971;BME280;6045;42.682;23.294;2023-08-17T05:01:08;94724.19;;;25.20;60.24
11971;BME280;6045;42.682;23.294;2023-08-17T05:03:35;94716.47;;;25.22;59.98
11971;BME280;6045;42.682;23.294;2023-08-17T05:06:03;94716.22;;;25.01;59.85
11971;BME280;6045;42.682;23.294;2023-08-17T05:08:30;94720.38;;;24.82;61.06
11971;BME280;6045;42.682;23.294;2023-08-17T05:10:58;94720.38;;;24.82;60.48
11971;BME280;6045;42.682;23.294;2023-08-17T05:13:25;94713.53;;;24.71;60.47
11971;BME280;6045;42.682;23.294;2023-08-17T05:15:52;94721.09;;;24.74;60.40
11971;BME280;6045;42.682;23.294;2023-08-17T05:18:18;94721.56;;;24.67;60.78
11971;BME280;6045;42.682;23.294;2023-08-17T05:20:45;94725.75;;;24.73;60.60
11971;BME280;6045;42.682;23.294;2023-08-17T05:23:13;94723.72;;;24.79;60.00
11971;BME280;6045;42.682;23.294;2023-08-17T05:25:40;94728.72;;;24.85;60.03
11971;BME280;6045;42.682;23.294;2023-08-17T05:28:07;94724.59;;;24.96;59.32
11971;BME280;6045;42.682;23.294;2023-08-17T05:30:34;94722.69;;;25.05;59.02
11971;BME280;6045;42.682;23.294;2023-08-17T05:33:01;94727.22;;;25.10;58.56
11971;BME280;6045;42.682;23.294;2023-08-17T05:35:27;94728.53;;;25.21;58.15
11971;BME280;6045;42.682;23.294;2023-08-17T05:37:54;94733.72;;;25.40;56.97
11971;BME280;6045;42.682;23.294;2023-08-17T05:40:22;94728.44;;;25.60;57.05
11971;BME280;6045;42.682;23.294;2023-08-17T05:42:49;94729.75;;;25.80;56.60
11971;BME280;6045;42.682;23.294;2023-08-17T05:45:16;94724.59;;;25.87;55.74
11971;BME280;6045;42.682;23.294;2023-08-17T05:47:42;94726.06;;;26.10;54.84
11971;BME280;6045;42.682;23.294;2023-08-17T05:50:11;94731.31;;;26.41;54.66
11971;BME280;6045;42.682;23.294;2023-08-17T05:52:38;94730.03;;;26.47;54.08
11971;BME280;6045;42.682;23.294;2023-08-17T05:55:05;94734.50;;;26.60;52.35
11971;BME280;6045;42.682;23.294;2023-08-17T05:57:34;94736.75;;;26.75;52.19
11971;BME280;6045;42.682;23.294;2023-08-17T06:00:01;94735.72;;;26.88;51.89
11971;BME280;6045;42.682;23.294;2023-08-17T06:02:28;94735.78;;;27.09;49.12
11971;BME280;6045;42.682;23.294;2023-08-17T06:04:55;94739.28;;;27.18;49.08
11971;BME280;6045;42.682;23.294;2023-08-17T06:07:21;94736.94;;;27.37;48.00
11971;BME280;6045;42.682;23.294;2023-08-17T06:09:48;94742.72;;;27.44;47.87
11971;BME280;6045;42.682;23.294;2023-08-17T06:12:15;94733.06;;;27.67;47.10
11971;BME280;6045;42.682;23.294;2023-08-17T06:14:44;94741.97;;;27.85;48.75
11971;BME280;6045;42.682;23.294;2023-08-17T06:17:11;94740.50;;;28.08;48.75
11971;BME280;6045;42.682;23.294;2023-08-17T06:19:37;94720.66;;;28.23;49.30
11971;BME280;6045;42.682;23.294;2023-08-17T06:22:05;94732.66;;;28.52;48.62
11971;BME280;6045;42.682;23.294;2023-08-17T06:24:32;94740.16;;;28.63;48.35
11971;BME280;6045;42.682;23.294;2023-08-17T06:26:59;94735.97;;;28.78;48.11
11971;BME280;6045;42.682;23.294;2023-08-17T06:29:26;94739.75;;;28.97;47.96
11971;BME280;6045;42.682;23.294;2023-08-17T06:31:54;94747.63;;;29.20;47.82
11971;BME280;6045;42.682;23.294;2023-08-17T06:34:21;94741.88;;;29.37;47.75
11971;BME280;6045;42.682;23.294;2023-08-17T06:36:57;94744.28;;;29.26;48.21
11971;BME280;6045;42.682;23.294;2023-08-17T06:39:24;94739.44;;;29.59;47.00
11971;BME280;6045;42.682;23.294;2023-08-17T06:41:54;94739.22;;;29.76;46.06
11971;BME280;6045;42.682;23.294;2023-08-17T06:44:21;94745.16;;;29.91;46.00
11971;BME280;6045;42.682;23.294;2023-08-17T06:46:47;94743.69;;;30.21;45.09
11971;BME280;6045;42.682;23.294;2023-08-17T06:49:16;94743.91;;;30.28;45.13
11971;BME280;6045;42.682;23.294;2023-08-17T06:51:42;94751.72;;;30.38;44.64
11971;BME280;6045;42.682;23.294;2023-08-17T06:54:09;94745.41;;;30.53;44.36
11971;BME280;6045;42.682;23.294;2023-08-17T06:56:36;94739.38;;;30.48;44.92
11971;BME280;6045;42.682;23.294;2023-08-17T06:59:03;94749.13;;;30.73;43.04
11971;BME280;6045;42.682;23.294;2023-08-17T07:01:30;94745.00;;;30.94;41.69
11971;BME280;6045;42.682;23.294;2023-08-17T07:03:57;94743.22;;;31.02;40.90
11971;BME280;6045;42.682;23.294;2023-08-17T07:06:25;94739.13;;;31.27;40.42
11971;BME280;6045;42.682;23.294;2023-08-17T07:08:52;94738.31;;;31.27;38.59
11971;BME280;6045;42.682;23.294;2023-08-17T07:11:19;94741.78;;;31.24;39.20
11971;BME280;6045;42.682;23.294;2023-08-17T07:13:45;94733.94;;;31.41;38.37
11971;BME280;6045;42.682;23.294;2023-08-17T07:16:13;94739.03;;;31.55;39.44
11971;BME280;6045;42.682;23.294;2023-08-17T07:18:39;94740.50;;;31.68;37.60
11971;BME280;6045;42.682;23.294;2023-08-17T07:21:06;94736.97;;;31.67;37.81
11971;BME280;6045;42.682;23.294;2023-08-17T07:23:34;94732.66;;;31.70;38.03
11971;BME280;6045;42.682;23.294;2023-08-17T07:26:01;94728.59;;;31.99;37.31
11971;BME280;6045;42.682;23.294;2023-08-17T07:28:28;94731.44;;;32.21;36.53
11971;BME280;6045;42.682;23.294;2023-08-17T07:30:55;94730.88;;;32.12;36.33
11971;BME280;6045;42.682;23.294;2023-08-17T07:33:21;94732.03;;;32.30;34.94
11971;BME280;6045;42.682;23.294;2023-08-17T07:35:48;94735.22;;;32.13;32.21
11971;BME280;6045;42.682;23.294;2023-08-17T07:38:15;94726.41;;;31.73;33.01
11971;BME280;6045;42.682;23.294;2023-08-17T07:40:43;94733.94;;;31.26;32.41
11971;BME280;6045;42.682;23.294;2023-08-17T07:43:10;94725.03;;;31.17;33.73
11971;BME280;6045;42.682;23.294;2023-08-17T07:45:37;94731.63;;;31.43;34.29
11971;BME280;6045;42.682;23.294;2023-08-17T07:48:04;94733.34;;;31.83;33.43
11971;BME280;6045;42.682;23.294;2023-08-17T07:50:31;94724.16;;;31.78;33.22
11971;BME280;6045;42.682;23.294;2023-08-17T07:52:58;94734.91;;;31.64;34.17
11971;BME280;6045;42.682;23.294;2023-08-17T07:55:25;94725.94;;;31.87;33.37
11971;BME280;6045;42.682;23.294;2023-08-17T07:57:54;94739.03;;;32.05;33.98
11971;BME280;6045;42.682;23.294;2023-08-17T08:00:20;94722.72;;;32.19;33.54
11971;BME280;6045;42.682;23.294;2023-08-17T08:02:47;94722.28;;;31.98;34.32
11971;BME280;6045;42.682;23.294;2023-08-17T08:05:14;94719.44;;;31.79;34.67
11971;BME280;6045;42.682;23.294;2023-08-17T08:07:41;94717.91;;;32.16;34.71
11971;BME280;6045;42.682;23.294;2023-08-17T08:10:08;94711.97;;;32.53;33.59
11971;BME280;6045;42.682;23.294;2023-08-17T08:12:35;94713.34;;;32.85;33.94
11971;BME280;6045;42.682;23.294;2023-08-17T08:15:04;94717.81;;;33.12;33.51
11971;BME280;6045;42.682;23.294;2023-08-17T08:17:30;94712.91;;;32.83;32.61
11971;BME280;6045;42.682;23.294;2023-08-17T08:19:58;94710.91;;;33.02;32.99
11971;BME280;6045;42.682;23.294;2023-08-17T08:22:24;94713.03;;;32.90;33.54
11971;BME280;6045;42.682;23.294;2023-08-17T08:24:51;94716.66;;;32.94;34.39
11971;BME280;6045;42.682;23.294;2023-08-17T08:27:18;94711.72;;;32.84;32.91
11971;BME280;6045;42.682;23.294;2023-08-17T08:29:45;94711.78;;;32.46;33.46
11971;BME280;6045;42.682;23.294;2023-08-17T08:32:13;94702.22;;;32.62;33.61
11971;BME280;6045;42.682;23.294;2023-08-17T08:34:40;94711.38;;;32.85;33.35
11971;BME280;6045;42.682;23.294;2023-08-17T08:37:07;94711.94;;;33.17;32.59
11971;BME280;6045;42.682;23.294;2023-08-17T08:39:48;94712.47;;;33.49;32.77
11971;BME280;6045;42.682;23.294;2023-08-17T08:42:15;94713.16;;;33.42;32.37
11971;BME280;6045;42.682;23.294;2023-08-17T08:44:42;94709.31;;;33.50;32.64
11971;BME280;6045;42.682;23.294;2023-08-17T08:47:09;94707.34;;;33.51;32.02
11971;BME280;6045;42.682;23.294;2023-08-17T08:49:39;94712.06;;;33.47;32.16
11971;BME280;6045;42.682;23.294;2023-08-17T08:52:07;94711.84;;;33.33;33.01
11971;BME280;6045;42.682;23.294;2023-08-17T08:54:35;94709.47;;;32.89;34.02
11971;BME280;6045;42.682;23.294;2023-08-17T08:57:08;94700.00;;;33.13;33.69
11971;BME280;6045;42.682;23.294;2023-08-17T08:59:35;94699.84;;;33.51;33.42
11971;BME280;6045;42.682;23.294;2023-08-17T09:02:10;94708.91;;;34.01;32.86
11971;BME280;6045;42.682;23.294;2023-08-17T09:04:39;94697.72;;;34.23;31.34
11971;BME280;6045;42.682;23.294;2023-08-17T09:07:06;94705.34;;;34.30;31.83
11971;BME280;6045;42.682;23.294;2023-08-17T09:09:35;94690.88;;;34.47;31.69
11971;BME280;6045;42.682;23.294;2023-08-17T09:12:02;94691.47;;;34.30;31.54
11971;BME280;6045;42.682;23.294;2023-08-17T09:14:29;94678.81;;;34.03;31.73
11971;BME280;6045;42.682;23.294;2023-08-17T09:16:56;94669.13;;;34.19;32.00
11971;BME280;6045;42.682;23.294;2023-08-17T09:19:24;94669.75;;;34.06;32.16
11971;BME280;6045;42.682;23.294;2023-08-17T09:21:52;94671.59;;;34.24;32.55
11971;BME280;6045;42.682;23.294;2023-08-17T09:24:19;94670.28;;;34.52;31.15
11971;BME280;6045;42.682;23.294;2023-08-17T09:26:46;94663.25;;;34.58;31.80
11971;BME280;6045;42.682;23.294;2023-08-17T09:29:17;94664.91;;;34.66;31.76
11971;BME280;6045;42.682;23.294;2023-08-17T09:31:44;94659.34;;;34.62;31.37
11971;BME280;6045;42.682;23.294;2023-08-17T09:34:11;94651.84;;;34.66;31.01
11971;BME280;6045;42.682;23.294;2023-08-17T09:36:41;94647.66;;;34.86;30.09
11971;BME280;6045;42.682;23.294;2023-08-17T09:39:09;94658.97;;;35.04;30.38
11971;BME280;6045;42.682;23.294;2023-08-17T09:41:41;94645.56;;;35.17;29.92
11971;BME280;6045;42.682;23.294;2023-08-17T09:44:08;94643.69;;;34.87;29.55
11971;BME280;6045;42.682;23.294;2023-08-17T09:46:35;94642.75;;;34.69;29.32
11971;BME280;6045;42.682;23.294;2023-08-17T09:49:02;94644.59;;;34.58;30.08
11971;BME280;6045;42.682;23.294;2023-08-17T09:51:30;94631.38;;;34.88;30.25
11971;BME280;6045;42.682;23.294;2023-08-17T09:53:57;94630.38;;;35.03;30.42
11971;BME280;6045;42.682;23.294;2023-08-17T09:56:26;94633.69;;;34.79;29.36
11971;BME280;6045;42.682;23.294;2023-08-17T09:58:54;94629.22;;;34.68;29.87
11971;BME280;6045;42.682;23.294;2023-08-17T10:01:22;94617.19;;;35.00;29.93
11971;BME280;6045;42.682;23.294;2023-08-17T10:03:50;94631.75;;;35.27;29.61
11971;BME280;6045;42.682;23.294;2023-08-17T10:06:22;94615.50;;;35.33;28.50
11971;BME280;6045;42.682;23.294;2023-08-17T10:08:52;94625.53;;;35.00;29.13
11971;BME280;6045;42.682;23.294;2023-08-17T10:11:20;94620.38;;;34.55;28.10
11971;BME280;6045;42.682;23.294;2023-08-17T10:13:51;94624.22;;;34.47;28.00
11971;BME280;6045;42.682;23.294;2023-08-17T10:16:22;94616.31;;;34.49;28.09
11971;BME280;6045;42.682;23.294;2023-08-17T10:18:54;94618.44;;;34.26;29.78
11971;BME280;6045;42.682;23.294;2023-08-17T10:21:25;94623.66;;;34.68;28.87
11971;BME280;6045;42.682;23.294;2023-08-17T10:23:55;94612.44;;;34.97;28.42
11971;BME280;6045;42.682;23.294;2023-08-17T10:26:22;94611.66;;;35.00;28.18
11971;BME280;6045;42.682;23.294;2023-08-17T10:28:51;94604.69;;;35.21;28.23
11971;BME280;6045;42.682;23.294;2023-08-17T10:31:20;94613.22;;;35.49;27.54
11971;BME280;6045;42.682;23.294;2023-08-17T10:33:47;94614.19;;;35.74;27.26
11971;BME280;6045;42.682;23.294;2023-08-17T10:36:14;94611.84;;;35.83;26.68
11971;BME280;6045;42.682;23.294;2023-08-17T10:38:42;94617.09;;;35.30;27.31
11971;BME280;6045;42.682;23.294;2023-08-17T10:41:10;94611.06;;;35.25;27.49
11971;BME280;6045;42.682;23.294;2023-08-17T10:43:58;94607.63;;;35.42;27.43
11971;BME280;6045;42.682;23.294;2023-08-17T10:46:33;94603.22;;;35.41;27.19
11971;BME280;6045;42.682;23.294;2023-08-17T10:49:03;94605.50;;;35.86;27.53
11971;BME280;6045;42.682;23.294;2023-08-17T10:51:30;94599.19;;;35.96;27.16
11971;BME280;6045;42.682;23.294;2023-08-17T10:53:58;94596.72;;;35.77;26.78
11971;BME280;6045;42.682;23.294;2023-08-17T10:56:27;94600.50;;;35.48;26.52
11971;BME280;6045;42.682;23.294;2023-08-17T10:58:54;94591.25;;;35.33;27.83
11971;BME280;6045;42.682;23.294;2023-08-17T11:01:40;94601.56;;;35.91;27.11
11971;BME280;6045;42.682;23.294;2023-08-17T11:04:11;94587.78;;;36.15;27.31
11971;BME280;6045;42.682;23.294;2023-08-17T11:06:38;94591.88;;;36.57;27.80
11971;BME280;6045;42.682;23.294;2023-08-17T11:09:07;94589.13;;;36.81;27.27
11971;BME280;6045;42.682;23.294;2023-08-17T11:11:34;94589.94;;;37.14;26.38
11971;BME280;6045;42.682;23.294;2023-08-17T11:14:01;94589.13;;;37.20;26.29
11971;BME280;6045;42.682;23.294;2023-08-17T11:16:28;94579.59;;;37.07;25.72
11971;BME280;6045;42.682;23.294;2023-08-17T11:18:56;94578.00;;;37.17;25.50
11971;BME280;6045;42.682;23.294;2023-08-17T11:21:25;94581.91;;;36.91;25.48
11971;BME280;6045;42.682;23.294;2023-08-17T11:23:55;94578.72;;;36.57;26.41
11971;BME280;6045;42.682;23.294;2023-08-17T11:26:22;94577.94;;;36.46;27.06
11971;BME280;6045;42.682;23.294;2023-08-17T11:28:49;94568.22;;;35.98;27.44
11971;BME280;6045;42.682;23.294;2023-08-17T11:31:16;94567.19;;;35.55;28.27
11971;BME280;6045;42.682;23.294;2023-08-17T11:33:43;94565.56;;;35.50;28.95
11971;BME280;6045;42.682;23.294;2023-08-17T11:36:11;94570.84;;;35.66;28.17
11971;BME280;6045;42.682;23.294;2023-08-17T11:38:40;94563.09;;;36.21;28.04
11971;BME280;6045;42.682;23.294;2023-08-17T11:41:07;94574.75;;;36.55;27.11
11971;BME280;6045;42.682;23.294;2023-08-17T11:43:35;94565.25;;;36.94;26.43
11971;BME280;6045;42.682;23.294;2023-08-17T11:46:02;94566.03;;;36.95;27.14
11971;BME280;6045;42.682;23.294;2023-08-17T11:48:29;94574.75;;;36.55;26.52
11971;BME280;6045;42.682;23.294;2023-08-17T11:50:56;94566.66;;;36.07;27.42
11971;BME280;6045;42.682;23.294;2023-08-17T11:53:24;94562.69;;;36.08;27.34
11971;BME280;6045;42.682;23.294;2023-08-17T11:55:51;94558.78;;;36.45;26.75
11971;BME280;6045;42.682;23.294;2023-08-17T11:58:18;94556.81;;;36.49;27.15
11971;BME280;6045;42.682;23.294;2023-08-17T12:00:45;94554.38;;;36.29;27.58
11971;BME280;6045;42.682;23.294;2023-08-17T12:03:15;94553.91;;;36.06;27.34
11971;BME280;6045;42.682;23.294;2023-08-17T12:05:43;94556.25;;;35.97;27.89
11971;BME280;6045;42.682;23.294;2023-08-17T12:08:10;94551.56;;;36.19;27.84
11971;BME280;6045;42.682;23.294;2023-08-17T12:10:40;94554.78;;;36.31;27.60
11971;BME280;6045;42.682;23.294;2023-08-17T12:13:11;94554.63;;;35.82;28.08
11971;BME280;6045;42.682;23.294;2023-08-17T12:15:37;94551.38;;;35.66;28.58
11971;BME280;6045;42.682;23.294;2023-08-17T12:18:05;94554.16;;;35.66;28.14
11971;BME280;6045;42.682;23.294;2023-08-17T12:20:32;94544.19;;;35.65;27.75
11971;BME280;6045;42.682;23.294;2023-08-17T12:23:02;94539.72;;;35.50;29.30
11971;BME280;6045;42.682;23.294;2023-08-17T12:25:28;94539.28;;;35.41;29.49
11971;BME280;6045;42.682;23.294;2023-08-17T12:27:59;94539.00;;;35.60;28.98
11971;BME280;6045;42.682;23.294;2023-08-17T12:30:28;94538.72;;;35.86;29.17
11971;BME280;6045;42.682;23.294;2023-08-17T12:32:57;94528.09;;;36.13;28.75
11971;BME280;6045;42.682;23.294;2023-08-17T12:35:24;94536.72;;;35.90;30.76
11971;BME280;6045;42.682;23.294;2023-08-17T12:37:51;94530.56;;;35.42;32.48
11971;BME280;6045;42.682;23.294;2023-08-17T12:40:18;94529.59;;;35.14;32.48
11971;BME280;6045;42.682;23.294;2023-08-17T12:42:44;94538.06;;;34.80;32.88
11971;BME280;6045;42.682;23.294;2023-08-17T12:45:13;94532.19;;;34.92;32.89
11971;BME280;6045;42.682;23.294;2023-08-17T12:47:40;94541.38;;;35.00;32.04
11971;BME280;6045;42.682;23.294;2023-08-17T12:50:07;94535.28;;;34.80;33.49
11971;BME280;6045;42.682;23.294;2023-08-17T12:52:34;94541.94;;;34.69;33.67
11971;BME280;6045;42.682;23.294;2023-08-17T12:55:01;94538.34;;;34.68;33.02
11971;BME280;6045;42.682;23.294;2023-08-17T12:57:28;94531.31;;;34.81;32.90
11971;BME280;6045;42.682;23.294;2023-08-17T12:59:55;94545.31;;;34.95;33.32
11971;BME280;6045;42.682;23.294;2023-08-17T13:02:23;94540.44;;;34.82;35.07